sensor_id;sensor_type;location;lat;lon;timestamp;P1;durP1;ratioP1;P2;durP2;ratioP2
19969;SDS011;10146;47.754;9.566;2023-11-22T00:00:12;12.73;;;10.45;;
19969;SDS011;10146;47.754;9.566;2023-11-22T00:02:39;11.07;;;9.35;;
19969;SDS011;10146;47.754;9.566;2023-11-22T00:05:05;10.75;;;9.65;;
19969;SDS011;10146;47.754;9.566;2023-11-22T00:07:32;11.23;;;9.45;;
19969;SDS011;10146;47.754;9.566;2023-11-22T00:09:58;11.68;;;9.93;;
19969;SDS011;10146;47.754;9.566;2023-11-22T00:12:23;11.73;;;10.25;;
19969;SDS011;10146;47.754;9.566;2023-11-22T00:14:49;11.10;;;10.00;;
19969;SDS011;10146;47.754;9.566;2023-11-22T00:17:16;13.25;;;10.80;;
19969;SDS011;10146;47.754;9.566;2023-11-22T00:19:45;9.88;;;8.88;;
19969;SDS011;10146;47.754;9.566;2023-11-22T00:22:11;12.18;;;9.90;;
19969;SDS011;10146;47.754;9.566;2023-11-22T00:24:39;11.65;;;9.10;;
19969;SDS011;10146;47.754;9.566;2023-11-22T00:27:05;10.80;;;9.70;;
19969;SDS011;10146;47.754;9.566;2023-11-22T00:29:31;12.40;;;10.30;;
19969;SDS011;10146;47.754;9.566;2023-11-22T00:31:57;11.98;;;9.60;;
19969;SDS011;10146;47.754;9.566;2023-11-22T00:34:23;9.73;;;8.73;;
19969;SDS011;10146;47.754;9.566;2023-11-22T00:36:49;10.50;;;9.18;;
19969;SDS011;10146;47.754;9.566;2023-11-22T00:39:15;11.85;;;9.68;;
19969;SDS011;10146;47.754;9.566;2023-11-22T00:41:41;12.27;;;8.75;;
19969;SDS011;10146;47.754;9.566;2023-11-22T00:44:07;11.05;;;9.43;;
19969;SDS011;10146;47.754;9.566;2023-11-22T00:46:33;10.98;;;9.32;;
19969;SDS011;10146;47.754;9.566;2023-11-22T00:48:58;12.48;;;9.90;;
19969;SDS011;10146;47.754;9.566;2023-11-22T00:51:24;11.25;;;8.95;;
19969;SDS011;10146;47.754;9.566;2023-11-22T00:53:49;11.65;;;9.57;;
19969;SDS011;10146;47.754;9.566;2023-11-22T00:56:16;10.07;;;8.55;;
19969;SDS011;10146;47.754;9.566;2023-11-22T00:58:41;13.32;;;10.50;;
19969;SDS011;10146;47.754;9.566;2023-11-22T01:01:07;11.48;;;9.70;;
19969;SDS011;10146;47.754;9.566;2023-11-22T01:03:33;11.90;;;10.43;;
19969;SDS011;10146;47.754;9.566;2023-11-22T01:06:00;11.60;;;9.27;;
19969;SDS011;10146;47.754;9.566;2023-11-22T01:08:25;12.18;;;10.48;;
19969;SDS011;10146;47.754;9.566;2023-11-22T01:10:51;11.77;;;10.18;;
19969;SDS011;10146;47.754;9.566;2023-11-22T01:13:17;13.55;;;10.63;;
19969;SDS011;10146;47.754;9.566;2023-11-22T01:15:43;14.45;;;11.80;;
19969;SDS011;10146;47.754;9.566;2023-11-22T01:18:09;11.98;;;10.35;;
19969;SDS011;10146;47.754;9.566;2023-11-22T01:20:35;12.10;;;10.80;;
19969;SDS011;10146;47.754;9.566;2023-11-22T01:23:01;12.05;;;10.50;;
19969;SDS011;10146;47.754;9.566;2023-11-22T01:25:26;11.95;;;10.30;;
19969;SDS011;10146;47.754;9.566;2023-11-22T01:27:53;15.98;;;11.95;;
19969;SDS011;10146;47.754;9.566;2023-11-22T01:30:19;12.52;;;11.18;;
19969;SDS011;10146;47.754;9.566;2023-11-22T01:32:44;11.80;;;10.57;;
19969;SDS011;10146;47.754;9.566;2023-11-22T01:35:10;14.52;;;11.02;;
19969;SDS011;10146;47.754;9.566;2023-11-22T01:37:35;11.65;;;10.45;;
19969;SDS011;10146;47.754;9.566;2023-11-22T01:40:01;13.32;;;10.55;;
19969;SDS011;10146;47.754;9.566;2023-11-22T01:42:28;15.77;;;11.85;;
19969;SDS011;10146;47.754;9.566;2023-11-22T01:44:54;14.60;;;11.60;;
19969;SDS011;10146;47.754;9.566;2023-11-22T01:47:20;13.02;;;10.18;;
19969;SDS011;10146;47.754;9.566;2023-11-22T01:49:46;14.40;;;12.30;;
19969;SDS011;10146;47.754;9.566;2023-11-22T01:52:12;15.18;;;11.90;;
19969;SDS011;10146;47.754;9.566;2023-11-22T01:54:39;17.00;;;11.77;;
19969;SDS011;10146;47.754;9.566;2023-11-22T01:57:05;14.35;;;11.85;;
19969;SDS011;10146;47.754;9.566;2023-11-22T01:59:33;14.35;;;12.18;;
19969;SDS011;10146;47.754;9.566;2023-11-22T02:02:00;16.10;;;11.90;;
19969;SDS011;10146;47.754;9.566;2023-11-22T02:04:26;12.88;;;10.65;;
19969;SDS011;10146;47.754;9.566;2023-11-22T02:06:52;15.18;;;11.95;;
19969;SDS011;10146;47.754;9.566;2023-11-22T02:09:18;13.75;;;11.35;;
19969;SDS011;10146;47.754;9.566;2023-11-22T02:11:44;16.88;;;11.60;;
19969;SDS011;10146;47.754;9.566;2023-11-22T02:14:14;15.73;;;12.85;;
19969;SDS011;10146;47.754;9.566;2023-11-22T02:16:40;14.30;;;11.73;;
19969;SDS011;10146;47.754;9.566;2023-11-22T02:19:06;14.20;;;11.38;;
19969;SDS011;10146;47.754;9.566;2023-11-22T02:21:38;17.15;;;12.68;;
19969;SDS011;10146;47.754;9.566;2023-11-22T02:24:04;15.35;;;12.27;;
19969;SDS011;10146;47.754;9.566;2023-11-22T02:26:30;16.77;;;12.25;;
19969;SDS011;10146;47.754;9.566;2023-11-22T02:28:56;18.23;;;12.63;;
19969;SDS011;10146;47.754;9.566;2023-11-22T02:31:21;16.58;;;12.20;;
19969;SDS011;10146;47.754;9.566;2023-11-22T02:33:49;16.30;;;12.05;;
19969;SDS011;10146;47.754;9.566;2023-11-22T02:36:15;17.92;;;11.90;;
19969;SDS011;10146;47.754;9.566;2023-11-22T02:38:41;19.30;;;12.70;;
19969;SDS011;10146;47.754;9.566;2023-11-22T02:41:07;15.68;;;12.20;;
19969;SDS011;10146;47.754;9.566;2023-11-22T02:43:34;18.83;;;12.70;;
19969;SDS011;10146;47.754;9.566;2023-11-22T02:46:00;17.00;;;13.00;;
19969;SDS011;10146;47.754;9.566;2023-11-22T02:48:26;16.38;;;13.40;;
19969;SDS011;10146;47.754;9.566;2023-11-22T02:50:52;16.73;;;12.55;;
19969;SDS011;10146;47.754;9.566;2023-11-22T02:53:19;16.63;;;13.45;;
19969;SDS011;10146;47.754;9.566;2023-11-22T02:55:44;18.00;;;12.30;;
19969;SDS011;10146;47.754;9.566;2023-11-22T02:58:10;17.95;;;12.85;;
19969;SDS011;10146;47.754;9.566;2023-11-22T03:00:37;15.93;;;12.40;;
19969;SDS011;10146;47.754;9.566;2023-11-22T03:03:04;19.27;;;14.60;;
19969;SDS011;10146;47.754;9.566;2023-11-22T03:05:34;17.55;;;14.77;;
19969;SDS011;10146;47.754;9.566;2023-11-22T03:08:01;19.17;;;14.23;;
19969;SDS011;10146;47.754;9.566;2023-11-22T03:10:28;16.10;;;12.73;;
19969;SDS011;10146;47.754;9.566;2023-11-22T03:12:54;15.55;;;12.63;;
19969;SDS011;10146;47.754;9.566;2023-11-22T03:15:20;16.55;;;12.45;;
19969;SDS011;10146;47.754;9.566;2023-11-22T03:17:46;18.70;;;14.10;;
19969;SDS011;10146;47.754;9.566;2023-11-22T03:20:13;15.73;;;12.63;;
19969;SDS011;10146;47.754;9.566;2023-11-22T03:22:40;18.15;;;12.57;;
19969;SDS011;10146;47.754;9.566;2023-11-22T03:25:08;16.02;;;12.98;;
19969;SDS011;10146;47.754;9.566;2023-11-22T03:27:35;17.35;;;13.40;;
19969;SDS011;10146;47.754;9.566;2023-11-22T03:30:01;17.42;;;13.68;;
19969;SDS011;10146;47.754;9.566;2023-11-22T03:32:27;17.52;;;13.98;;
19969;SDS011;10146;47.754;9.566;2023-11-22T03:34:54;17.73;;;13.57;;
19969;SDS011;10146;47.754;9.566;2023-11-22T03:37:20;19.40;;;13.63;;
19969;SDS011;10146;47.754;9.566;2023-11-22T03:39:45;21.67;;;15.60;;
19969;SDS011;10146;47.754;9.566;2023-11-22T03:42:16;17.33;;;14.27;;
19969;SDS011;10146;47.754;9.566;2023-11-22T03:44:42;18.55;;;13.73;;
19969;SDS011;10146;47.754;9.566;2023-11-22T03:47:09;19.42;;;14.18;;
19969;SDS011;10146;47.754;9.566;2023-11-22T03:49:36;22.60;;;15.18;;
19969;SDS011;10146;47.754;9.566;2023-11-22T03:52:02;20.13;;;15.73;;
19969;SDS011;10146;47.754;9.566;2023-11-22T03:54:28;19.60;;;15.00;;
19969;SDS011;10146;47.754;9.566;2023-11-22T03:56:53;22.15;;;14.75;;
19969;SDS011;10146;47.754;9.566;2023-11-22T03:59:19;19.88;;;15.60;;
19969;SDS011;10146;47.754;9.566;2023-11-22T04:01:44;21.77;;;15.35;;
19969;SDS011;10146;47.754;9.566;2023-11-22T04:04:10;18.63;;;14.82;;
19969;SDS011;10146;47.754;9.566;2023-11-22T04:06:36;21.85;;;15.85;;
19969;SDS011;10146;47.754;9.566;2023-11-22T04:09:02;22.42;;;16.00;;
19969;SDS011;10146;47.754;9.566;2023-11-22T04:11:27;21.60;;;16.05;;
19969;SDS011;10146;47.754;9.566;2023-11-22T04:13:54;21.38;;;16.75;;
19969;SDS011;10146;47.754;9.566;2023-11-22T04:16:20;20.77;;;15.10;;
19969;SDS011;10146;47.754;9.566;2023-11-22T04:18:46;19.15;;;14.80;;
19969;SDS011;10146;47.754;9.566;2023-11-22T04:21:11;19.27;;;15.10;;
19969;SDS011;10146;47.754;9.566;2023-11-22T04:23:37;19.80;;;15.07;;
19969;SDS011;10146;47.754;9.566;2023-11-22T04:26:03;22.17;;;16.02;;
19969;SDS011;10146;47.754;9.566;2023-11-22T04:28:29;21.20;;;14.45;;
19969;SDS011;10146;47.754;9.566;2023-11-22T04:30:55;23.08;;;15.77;;
19969;SDS011;10146;47.754;9.566;2023-11-22T04:33:22;21.85;;;15.77;;
19969;SDS011;10146;47.754;9.566;2023-11-22T04:35:51;20.33;;;14.68;;
19969;SDS011;10146;47.754;9.566;2023-11-22T04:38:16;20.42;;;14.88;;
19969;SDS011;10146;47.754;9.566;2023-11-22T04:40:42;20.73;;;14.85;;
19969;SDS011;10146;47.754;9.566;2023-11-22T04:43:08;18.65;;;15.05;;
19969;SDS011;10146;47.754;9.566;2023-11-22T04:45:34;19.73;;;15.00;;
19969;SDS011;10146;47.754;9.566;2023-11-22T04:48:00;19.65;;;14.93;;
19969;SDS011;10146;47.754;9.566;2023-11-22T04:50:26;16.00;;;12.90;;
19969;SDS011;10146;47.754;9.566;2023-11-22T04:52:51;12.35;;;10.07;;
19969;SDS011;10146;47.754;9.566;2023-11-22T04:55:17;10.27;;;8.25;;
19969;SDS011;10146;47.754;9.566;2023-11-22T04:57:44;9.50;;;7.57;;
19969;SDS011;10146;47.754;9.566;2023-11-22T05:00:13;8.85;;;6.93;;
19969;SDS011;10146;47.754;9.566;2023-11-22T05:02:38;7.45;;;6.47;;
19969;SDS011;10146;47.754;9.566;2023-11-22T05:05:05;7.53;;;6.40;;
19969;SDS011;10146;47.754;9.566;2023-11-22T05:07:31;6.35;;;5.75;;
19969;SDS011;10146;47.754;9.566;2023-11-22T05:09:57;6.75;;;5.22;;
19969;SDS011;10146;47.754;9.566;2023-11-22T05:12:23;5.82;;;4.90;;
19969;SDS011;10146;47.754;9.566;2023-11-22T05:14:48;5.70;;;4.85;;
19969;SDS011;10146;47.754;9.566;2023-11-22T05:17:14;5.40;;;4.90;;
19969;SDS011;10146;47.754;9.566;2023-11-22T05:19:40;5.78;;;5.28;;
19969;SDS011;10146;47.754;9.566;2023-11-22T05:22:05;5.80;;;5.20;;
19969;SDS011;10146;47.754;9.566;2023-11-22T05:24:32;5.68;;;5.18;;
19969;SDS011;10146;47.754;9.566;2023-11-22T05:26:59;6.35;;;5.70;;
19969;SDS011;10146;47.754;9.566;2023-11-22T05:29:25;6.32;;;5.72;;
19969;SDS011;10146;47.754;9.566;2023-11-22T05:31:51;6.80;;;6.10;;
19969;SDS011;10146;47.754;9.566;2023-11-22T05:34:17;6.70;;;6.03;;
19969;SDS011;10146;47.754;9.566;2023-11-22T05:36:43;5.90;;;5.40;;
19969;SDS011;10146;47.754;9.566;2023-11-22T05:39:08;6.75;;;6.10;;
19969;SDS011;10146;47.754;9.566;2023-11-22T05:41:34;6.55;;;5.57;;
19969;SDS011;10146;47.754;9.566;2023-11-22T05:44:01;6.50;;;5.70;;
19969;SDS011;10146;47.754;9.566;2023-11-22T05:46:27;5.60;;;5.10;;
19969;SDS011;10146;47.754;9.566;2023-11-22T05:48:53;5.00;;;4.55;;
19969;SDS011;10146;47.754;9.566;2023-11-22T05:51:20;4.90;;;4.43;;
19969;SDS011;10146;47.754;9.566;2023-11-22T05:53:46;3.50;;;3.20;;
19969;SDS011;10146;47.754;9.566;2023-11-22T05:56:11;2.63;;;2.42;;
19969;SDS011;10146;47.754;9.566;2023-11-22T05:58:37;2.33;;;2.13;;
19969;SDS011;10146;47.754;9.566;2023-11-22T06:01:06;2.40;;;2.15;;
19969;SDS011;10146;47.754;9.566;2023-11-22T06:03:38;2.10;;;1.90;;
19969;SDS011;10146;47.754;9.566;2023-11-22T06:06:04;1.90;;;1.80;;
19969;SDS011;10146;47.754;9.566;2023-11-22T06:08:30;2.35;;;2.15;;
19969;SDS011;10146;47.754;9.566;2023-11-22T06:10:56;2.47;;;2.28;;
19969;SDS011;10146;47.754;9.566;2023-11-22T06:13:23;2.88;;;2.58;;
19969;SDS011;10146;47.754;9.566;2023-11-22T06:15:49;2.95;;;2.70;;
19969;SDS011;10146;47.754;9.566;2023-11-22T06:18:15;3.22;;;2.85;;
19969;SDS011;10146;47.754;9.566;2023-11-22T06:20:41;3.40;;;3.10;;
19969;SDS011;10146;47.754;9.566;2023-11-22T06:23:07;4.10;;;3.70;;
19969;SDS011;10146;47.754;9.566;2023-11-22T06:25:33;3.97;;;3.65;;
19969;SDS011;10146;47.754;9.566;2023-11-22T06:28:01;4.07;;;3.72;;
19969;SDS011;10146;47.754;9.566;2023-11-22T06:30:30;4.93;;;4.53;;
19969;SDS011;10146;47.754;9.566;2023-11-22T06:32:55;4.90;;;4.10;;
19969;SDS011;10146;47.754;9.566;2023-11-22T06:35:21;4.68;;;4.28;;
19969;SDS011;10146;47.754;9.566;2023-11-22T06:37:48;5.30;;;4.57;;
19969;SDS011;10146;47.754;9.566;2023-11-22T06:40:13;5.05;;;4.55;;
19969;SDS011;10146;47.754;9.566;2023-11-22T06:42:42;7.75;;;5.22;;
19969;SDS011;10146;47.754;9.566;2023-11-22T06:45:08;5.57;;;4.57;;
19969;SDS011;10146;47.754;9.566;2023-11-22T06:47:44;5.45;;;4.95;;
19969;SDS011;10146;47.754;9.566;2023-11-22T06:50:10;6.03;;;5.43;;
19969;SDS011;10146;47.754;9.566;2023-11-22T06:52:37;6.32;;;5.72;;
19969;SDS011;10146;47.754;9.566;2023-11-22T06:55:03;6.28;;;5.68;;
19969;SDS011;10146;47.754;9.566;2023-11-22T06:57:29;6.32;;;5.72;;
19969;SDS011;10146;47.754;9.566;2023-11-22T06:59:56;6.32;;;5.72;;
19969;SDS011;10146;47.754;9.566;2023-11-22T07:02:22;7.07;;;6.38;;
19969;SDS011;10146;47.754;9.566;2023-11-22T07:04:48;6.95;;;6.25;;
19969;SDS011;10146;47.754;9.566;2023-11-22T07:07:13;7.38;;;6.68;;
19969;SDS011;10146;47.754;9.566;2023-11-22T07:09:42;7.10;;;6.38;;
19969;SDS011;10146;47.754;9.566;2023-11-22T07:12:09;6.40;;;5.78;;
19969;SDS011;10146;47.754;9.566;2023-11-22T07:14:35;7.20;;;6.50;;
19969;SDS011;10146;47.754;9.566;2023-11-22T07:17:01;5.97;;;5.38;;
19969;SDS011;10146;47.754;9.566;2023-11-22T07:19:27;6.55;;;5.90;;
19969;SDS011;10146;47.754;9.566;2023-11-22T07:21:53;6.40;;;5.80;;
19969;SDS011;10146;47.754;9.566;2023-11-22T07:24:19;7.15;;;6.22;;
19969;SDS011;10146;47.754;9.566;2023-11-22T07:26:44;6.72;;;6.13;;
19969;SDS011;10146;47.754;9.566;2023-11-22T07:29:10;9.13;;;5.88;;
19969;SDS011;10146;47.754;9.566;2023-11-22T07:31:37;7.20;;;6.50;;
19969;SDS011;10146;47.754;9.566;2023-11-22T07:34:03;6.88;;;6.18;;
19969;SDS011;10146;47.754;9.566;2023-11-22T07:36:29;7.00;;;6.30;;
19969;SDS011;10146;47.754;9.566;2023-11-22T07:38:55;7.13;;;6.43;;
19969;SDS011;10146;47.754;9.566;2023-11-22T07:41:21;7.15;;;6.53;;
19969;SDS011;10146;47.754;9.566;2023-11-22T07:43:47;7.43;;;5.95;;
19969;SDS011;10146;47.754;9.566;2023-11-22T07:46:13;6.55;;;5.95;;
19969;SDS011;10146;47.754;9.566;2023-11-22T07:48:39;6.35;;;5.75;;
19969;SDS011;10146;47.754;9.566;2023-11-22T07:51:06;7.22;;;6.53;;
19969;SDS011;10146;47.754;9.566;2023-11-22T07:53:32;6.18;;;5.57;;
19969;SDS011;10146;47.754;9.566;2023-11-22T07:55:59;7.35;;;5.82;;
19969;SDS011;10146;47.754;9.566;2023-11-22T07:58:32;6.93;;;5.93;;
19969;SDS011;10146;47.754;9.566;2023-11-22T08:00:58;6.35;;;5.75;;
19969;SDS011;10146;47.754;9.566;2023-11-22T08:03:24;6.78;;;6.07;;
19969;SDS011;10146;47.754;9.566;2023-11-22T08:05:53;5.95;;;5.45;;
19969;SDS011;10146;47.754;9.566;2023-11-22T08:08:20;6.43;;;5.82;;
19969;SDS011;10146;47.754;9.566;2023-11-22T08:10:49;6.60;;;5.90;;
19969;SDS011;10146;47.754;9.566;2023-11-22T08:13:18;6.43;;;5.82;;
19969;SDS011;10146;47.754;9.566;2023-11-22T08:15:48;6.70;;;6.10;;
19969;SDS011;10146;47.754;9.566;2023-11-22T08:18:13;6.40;;;5.80;;
19969;SDS011;10146;47.754;9.566;2023-11-22T08:20:41;6.82;;;6.13;;
19969;SDS011;10146;47.754;9.566;2023-11-22T08:23:08;9.68;;;6.82;;
19969;SDS011;10146;47.754;9.566;2023-11-22T08:25:34;8.68;;;7.40;;
19969;SDS011;10146;47.754;9.566;2023-11-22T08:28:00;10.63;;;8.65;;
19969;SDS011;10146;47.754;9.566;2023-11-22T08:30:26;12.50;;;9.25;;
19969;SDS011;10146;47.754;9.566;2023-11-22T08:32:52;12.98;;;9.50;;
19969;SDS011;10146;47.754;9.566;2023-11-22T08:35:19;10.80;;;9.45;;
19969;SDS011;10146;47.754;9.566;2023-11-22T08:37:48;10.15;;;8.82;;
19969;SDS011;10146;47.754;9.566;2023-11-22T08:40:15;9.27;;;8.20;;
19969;SDS011;10146;47.754;9.566;2023-11-22T08:42:45;8.80;;;7.90;;
19969;SDS011;10146;47.754;9.566;2023-11-22T08:45:11;9.13;;;8.23;;
19969;SDS011;10146;47.754;9.566;2023-11-22T08:47:37;8.90;;;7.90;;
19969;SDS011;10146;47.754;9.566;2023-11-22T08:50:06;9.32;;;7.95;;
19969;SDS011;10146;47.754;9.566;2023-11-22T08:52:33;9.25;;;8.35;;
19969;SDS011;10146;47.754;9.566;2023-11-22T08:54:59;9.52;;;8.18;;
19969;SDS011;10146;47.754;9.566;2023-11-22T08:57:25;9.07;;;7.68;;
19969;SDS011;10146;47.754;9.566;2023-11-22T08:59:51;8.23;;;7.22;;
19969;SDS011;10146;47.754;9.566;2023-11-22T09:02:18;7.13;;;6.28;;
19969;SDS011;10146;47.754;9.566;2023-11-22T09:04:47;7.75;;;6.95;;
19969;SDS011;10146;47.754;9.566;2023-11-22T09:07:12;6.50;;;5.90;;
19969;SDS011;10146;47.754;9.566;2023-11-22T09:09:39;9.48;;;6.55;;
19969;SDS011;10146;47.754;9.566;2023-11-22T09:12:06;8.05;;;6.80;;
19969;SDS011;10146;47.754;9.566;2023-11-22T09:14:37;7.35;;;6.65;;
19969;SDS011;10146;47.754;9.566;2023-11-22T09:17:07;6.47;;;5.88;;
19969;SDS011;10146;47.754;9.566;2023-11-22T09:19:34;7.80;;;6.10;;
19969;SDS011;10146;47.754;9.566;2023-11-22T09:22:00;7.82;;;6.75;;
19969;SDS011;10146;47.754;9.566;2023-11-22T09:24:26;7.43;;;6.70;;
19969;SDS011;10146;47.754;9.566;2023-11-22T09:26:52;7.40;;;6.55;;
19969;SDS011;10146;47.754;9.566;2023-11-22T09:29:17;6.80;;;6.20;;
19969;SDS011;10146;47.754;9.566;2023-11-22T09:31:43;8.02;;;7.00;;
19969;SDS011;10146;47.754;9.566;2023-11-22T09:34:12;7.50;;;6.70;;
19969;SDS011;10146;47.754;9.566;2023-11-22T09:36:38;8.48;;;7.25;;
19969;SDS011;10146;47.754;9.566;2023-11-22T09:39:04;8.18;;;7.18;;
19969;SDS011;10146;47.754;9.566;2023-11-22T09:41:33;9.77;;;7.68;;
19969;SDS011;10146;47.754;9.566;2023-11-22T09:44:00;7.43;;;6.72;;
19969;SDS011;10146;47.754;9.566;2023-11-22T09:46:26;10.48;;;7.30;;
19969;SDS011;10146;47.754;9.566;2023-11-22T09:48:52;8.18;;;7.10;;
19969;SDS011;10146;47.754;9.566;2023-11-22T09:51:22;7.55;;;6.78;;
19969;SDS011;10146;47.754;9.566;2023-11-22T09:56:29;8.52;;;7.72;;
19969;SDS011;10146;47.754;9.566;2023-11-22T09:58:58;8.40;;;7.10;;
19969;SDS011;10146;47.754;9.566;2023-11-22T10:01:26;9.98;;;7.13;;
19969;SDS011;10146;47.754;9.566;2023-11-22T10:04:01;8.40;;;7.50;;
19969;SDS011;10146;47.754;9.566;2023-11-22T10:06:27;7.20;;;6.28;;
19969;SDS011;10146;47.754;9.566;2023-11-22T10:08:58;7.07;;;6.38;;
19969;SDS011;10146;47.754;9.566;2023-11-22T10:11:25;6.72;;;6.03;;
19969;SDS011;10146;47.754;9.566;2023-11-22T10:13:51;6.60;;;5.97;;
19969;SDS011;10146;47.754;9.566;2023-11-22T10:16:17;7.07;;;6.38;;
19969;SDS011;10146;47.754;9.566;2023-11-22T10:18:45;7.88;;;6.38;;
19969;SDS011;10146;47.754;9.566;2023-11-22T10:21:27;7.07;;;6.38;;
19969;SDS011;10146;47.754;9.566;2023-11-22T10:24:01;7.07;;;6.03;;
19969;SDS011;10146;47.754;9.566;2023-11-22T10:26:28;7.03;;;6.43;;
19969;SDS011;10146;47.754;9.566;2023-11-22T10:28:54;7.00;;;6.35;;
19969;SDS011;10146;47.754;9.566;2023-11-22T10:31:21;7.32;;;6.47;;
19969;SDS011;10146;47.754;9.566;2023-11-22T10:33:48;6.95;;;6.35;;
19969;SDS011;10146;47.754;9.566;2023-11-22T10:36:14;6.88;;;6.18;;
19969;SDS011;10146;47.754;9.566;2023-11-22T10:38:41;5.93;;;5.32;;
19969;SDS011;10146;47.754;9.566;2023-11-22T10:41:11;5.88;;;5.28;;
19969;SDS011;10146;47.754;9.566;2023-11-22T10:43:38;5.75;;;5.18;;
19969;SDS011;10146;47.754;9.566;2023-11-22T10:46:04;6.20;;;5.60;;
19969;SDS011;10146;47.754;9.566;2023-11-22T10:48:31;5.50;;;5.00;;
19969;SDS011;10146;47.754;9.566;2023-11-22T10:51:01;5.90;;;5.30;;
19969;SDS011;10146;47.754;9.566;2023-11-22T10:56:14;7.32;;;5.10;;
19969;SDS011;10146;47.754;9.566;2023-11-22T10:58:44;5.20;;;4.70;;
19969;SDS011;10146;47.754;9.566;2023-11-22T11:01:16;5.22;;;4.65;;
19969;SDS011;10146;47.754;9.566;2023-11-22T11:04:03;5.43;;;4.90;;
19969;SDS011;10146;47.754;9.566;2023-11-22T11:06:36;6.22;;;5.15;;
19969;SDS011;10146;47.754;9.566;2023-11-22T11:09:05;4.63;;;4.22;;
19969;SDS011;10146;47.754;9.566;2023-11-22T11:11:34;5.18;;;4.75;;
19969;SDS011;10146;47.754;9.566;2023-11-22T11:14:00;5.25;;;4.75;;
19969;SDS011;10146;47.754;9.566;2023-11-22T11:16:28;5.20;;;4.70;;
19969;SDS011;10146;47.754;9.566;2023-11-22T11:18:57;4.50;;;4.10;;
19969;SDS011;10146;47.754;9.566;2023-11-22T11:21:24;4.85;;;4.35;;
19969;SDS011;10146;47.754;9.566;2023-11-22T11:23:51;4.82;;;4.40;;
19969;SDS011;10146;47.754;9.566;2023-11-22T11:26:20;4.90;;;4.50;;
19969;SDS011;10146;47.754;9.566;2023-11-22T11:28:49;5.95;;;5.38;;
19969;SDS011;10146;47.754;9.566;2023-11-22T11:31:16;5.80;;;5.20;;
19969;SDS011;10146;47.754;9.566;2023-11-22T11:36:32;4.47;;;4.07;;
19969;SDS011;10146;47.754;9.566;2023-11-22T11:38:58;4.45;;;4.05;;
19969;SDS011;10146;47.754;9.566;2023-11-22T11:41:27;5.65;;;4.65;;
19969;SDS011;10146;47.754;9.566;2023-11-22T11:44:03;5.95;;;5.32;;
19969;SDS011;10146;47.754;9.566;2023-11-22T11:46:32;5.82;;;5.03;;
19969;SDS011;10146;47.754;9.566;2023-11-22T11:48:58;5.60;;;5.10;;
19969;SDS011;10146;47.754;9.566;2023-11-22T11:51:24;5.18;;;4.70;;
19969;SDS011;10146;47.754;9.566;2023-11-22T11:53:53;5.50;;;5.00;;
19969;SDS011;10146;47.754;9.566;2023-11-22T11:56:20;5.20;;;4.70;;
19969;SDS011;10146;47.754;9.566;2023-11-22T11:58:47;5.40;;;4.90;;
19969;SDS011;10146;47.754;9.566;2023-11-22T12:01:14;5.90;;;5.03;;
19969;SDS011;10146;47.754;9.566;2023-11-22T12:03:48;6.18;;;5.57;;
19969;SDS011;10146;47.754;9.566;2023-11-22T12:06:14;6.22;;;5.30;;
19969;SDS011;10146;47.754;9.566;2023-11-22T12:08:41;5.95;;;5.35;;
19969;SDS011;10146;47.754;9.566;2023-11-22T12:11:07;6.10;;;5.45;;
19969;SDS011;10146;47.754;9.566;2023-11-22T12:13:33;6.60;;;5.65;;
19969;SDS011;10146;47.754;9.566;2023-11-22T12:16:03;6.40;;;5.80;;
19969;SDS011;10146;47.754;9.566;2023-11-22T12:18:38;6.32;;;5.72;;
19969;SDS011;10146;47.754;9.566;2023-11-22T12:21:12;6.88;;;6.15;;
19969;SDS011;10146;47.754;9.566;2023-11-22T12:23:38;6.80;;;6.10;;
19969;SDS011;10146;47.754;9.566;2023-11-22T12:26:09;6.32;;;5.80;;
19969;SDS011;10146;47.754;9.566;2023-11-22T12:28:39;6.65;;;6.05;;
19969;SDS011;10146;47.754;9.566;2023-11-22T12:31:08;6.53;;;5.85;;
19969;SDS011;10146;47.754;9.566;2023-11-22T12:33:35;6.97;;;6.30;;
19969;SDS011;10146;47.754;9.566;2023-11-22T12:36:02;6.15;;;5.57;;
19969;SDS011;10146;47.754;9.566;2023-11-22T12:38:29;6.13;;;5.53;;
19969;SDS011;10146;47.754;9.566;2023-11-22T12:40:58;6.47;;;5.88;;
19969;SDS011;10146;47.754;9.566;2023-11-22T12:43:24;6.28;;;5.72;;
19969;SDS011;10146;47.754;9.566;2023-11-22T12:46:03;6.07;;;5.47;;
19969;SDS011;10146;47.754;9.566;2023-11-22T12:48:31;6.72;;;6.13;;
19969;SDS011;10146;47.754;9.566;2023-11-22T12:50:58;6.05;;;5.45;;
19969;SDS011;10146;47.754;9.566;2023-11-22T12:53:25;6.72;;;6.05;;
19969;SDS011;10146;47.754;9.566;2023-11-22T12:55:53;7.47;;;6.15;;
19969;SDS011;10146;47.754;9.566;2023-11-22T12:58:20;6.82;;;5.88;;
19969;SDS011;10146;47.754;9.566;2023-11-22T13:00:50;6.57;;;5.97;;
19969;SDS011;10146;47.754;9.566;2023-11-22T13:03:23;7.28;;;6.57;;
19969;SDS011;10146;47.754;9.566;2023-11-22T13:05:49;7.35;;;6.00;;
19969;SDS011;10146;47.754;9.566;2023-11-22T13:08:17;6.50;;;5.85;;
19969;SDS011;10146;47.754;9.566;2023-11-22T13:10:43;6.72;;;6.10;;
19969;SDS011;10146;47.754;9.566;2023-11-22T13:13:11;6.80;;;6.13;;
19969;SDS011;10146;47.754;9.566;2023-11-22T13:15:37;6.65;;;5.95;;
19969;SDS011;10146;47.754;9.566;2023-11-22T13:18:05;6.97;;;5.97;;
19969;SDS011;10146;47.754;9.566;2023-11-22T13:20:31;7.75;;;6.45;;
19969;SDS011;10146;47.754;9.566;2023-11-22T13:22:57;6.43;;;5.82;;
19969;SDS011;10146;47.754;9.566;2023-11-22T13:25:25;7.28;;;5.97;;
19969;SDS011;10146;47.754;9.566;2023-11-22T13:27:51;7.22;;;6.53;;
19969;SDS011;10146;47.754;9.566;2023-11-22T13:30:18;7.30;;;6.43;;
19969;SDS011;10146;47.754;9.566;2023-11-22T13:32:45;7.60;;;6.38;;
19969;SDS011;10146;47.754;9.566;2023-11-22T13:35:11;8.35;;;7.45;;
19969;SDS011;10146;47.754;9.566;2023-11-22T13:37:40;7.70;;;7.00;;
19969;SDS011;10146;47.754;9.566;2023-11-22T13:40:10;7.32;;;6.63;;
19969;SDS011;10146;47.754;9.566;2023-11-22T13:45:11;8.70;;;7.80;;
19969;SDS011;10146;47.754;9.566;2023-11-22T13:47:45;9.25;;;8.35;;
19969;SDS011;10146;47.754;9.566;2023-11-22T13:50:15;8.68;;;7.78;;
19969;SDS011;10146;47.754;9.566;2023-11-22T13:52:50;10.20;;;7.90;;
19969;SDS011;10146;47.754;9.566;2023-11-22T13:55:18;10.15;;;9.07;;
19969;SDS011;10146;47.754;9.566;2023-11-22T13:57:53;9.93;;;8.60;;
19969;SDS011;10146;47.754;9.566;2023-11-22T14:00:21;8.77;;;7.90;;
19969;SDS011;10146;47.754;9.566;2023-11-22T14:02:49;11.05;;;8.90;;
19969;SDS011;10146;47.754;9.566;2023-11-22T14:05:22;9.43;;;8.35;;
19969;SDS011;10146;47.754;9.566;2023-11-22T14:07:48;11.00;;;8.45;;
19969;SDS011;10146;47.754;9.566;2023-11-22T14:10:16;9.32;;;8.20;;
19969;SDS011;10146;47.754;9.566;2023-11-22T14:12:43;9.20;;;8.13;;
19969;SDS011;10146;47.754;9.566;2023-11-22T14:15:10;9.48;;;8.52;;
19969;SDS011;10146;47.754;9.566;2023-11-22T14:17:36;9.98;;;8.88;;
19969;SDS011;10146;47.754;9.566;2023-11-22T14:20:07;10.07;;;8.88;;
19969;SDS011;10146;47.754;9.566;2023-11-22T14:22:36;9.00;;;8.07;;
19969;SDS011;10146;47.754;9.566;2023-11-22T14:25:03;10.77;;;9.10;;
19969;SDS011;10146;47.754;9.566;2023-11-22T14:27:32;9.90;;;8.18;;
19969;SDS011;10146;47.754;9.566;2023-11-22T14:29:59;8.63;;;7.70;;
19969;SDS011;10146;47.754;9.566;2023-11-22T14:32:25;8.65;;;7.80;;
19969;SDS011;10146;47.754;9.566;2023-11-22T14:34:50;9.00;;;8.10;;
19969;SDS011;10146;47.754;9.566;2023-11-22T14:37:18;8.82;;;7.93;;
19969;SDS011;10146;47.754;9.566;2023-11-22T14:39:44;8.52;;;7.50;;
19969;SDS011;10146;47.754;9.566;2023-11-22T14:42:10;8.15;;;7.35;;
19969;SDS011;10146;47.754;9.566;2023-11-22T14:44:36;7.88;;;6.88;;
19969;SDS011;10146;47.754;9.566;2023-11-22T14:47:03;8.80;;;7.55;;